Time;durP1;ratioP1;P1;durP2;ratioP2;P2;SDS_P1;SDS_P2;PMS_P1;PMS_P2;Temp;Humidity;BMP_temperature;BMP_pressure;BME280_temperature;BME280_humidity;BME280_pressure;Samples;Min_cycle;Max_cycle;Signal;HPM_P1;HPM_P2
2023/07/13 00:02:24;;;;;;;3.85;0.90;;;16.40;99.90;;;15.49;100.00;97667.75;5023131;28;20059;-77
2023/07/13 00:04:52;;;;;;;3.17;0.90;;;16.50;99.90;;;15.28;100.00;97669.88;5043063;28;20127;-79
2023/07/13 00:07:20;;;;;;;2.40;0.60;;;16.50;99.90;;;15.40;100.00;97671.75;5040543;28;20077;-78
2023/07/13 00:09:51;;;;;;;2.70;0.80;;;16.50;99.90;;;15.77;100.00;97663.44;5025477;28;20512;-78
2023/07/13 00:12:45;;;;;;;3.67;0.73;;;16.60;99.90;;;15.60;100.00;97667.06;5043818;28;20045;-78
2023/07/13 00:15:20;;;;;;;2.95;1.00;;;16.60;99.90;;;15.43;100.00;97674.16;5040515;28;20065;-78
2023/07/13 00:17:49;;;;;;;2.70;0.88;;;16.60;99.90;;;15.48;100.00;97677.34;5041259;28;20830;-78
2023/07/13 00:20:17;;;;;;;2.75;0.98;;;16.50;99.90;;;15.12;100.00;97688.25;5027843;28;20061;-78
2023/07/13 00:22:44;;;;;;;3.08;1.10;;;16.40;99.90;;;15.16;100.00;97687.13;5044311;28;20135;-78
2023/07/13 00:25:12;;;;;;;3.80;0.98;;;16.30;99.90;;;14.91;100.00;97694.75;5046135;28;20048;-77
2023/07/13 00:27:40;;;;;;;6.47;1.02;;;16.20;99.90;;;14.93;100.00;97692.88;5044429;28;20055;-78
2023/07/13 00:30:08;;;;;;;3.72;0.90;;;16.10;99.90;;;14.75;100.00;97702.63;5044731;28;20041;-77
2023/07/13 00:32:37;;;;;;;4.82;1.08;;;15.90;99.90;;;14.72;100.00;97703.63;5026076;28;20045;-77
2023/07/13 00:35:06;;;;;;;2.25;0.80;;;15.90;99.90;;;14.49;100.00;97714.53;5044933;28;20045;-78
2023/07/13 00:37:36;;;;;;;3.53;1.00;;;15.70;99.90;;;14.51;100.00;97721.34;5042042;28;20498;-77
2023/07/13 00:40:07;;;;;;;2.88;1.00;;;15.60;99.90;;;14.44;100.00;97720.00;5043605;28;20056;-78
2023/07/13 00:42:34;;;;;;;5.88;1.20;;;15.40;99.90;;;14.40;100.00;97727.16;5045038;28;20049;-77
2023/07/13 00:45:11;;;;;;;3.13;0.90;;;15.40;99.90;;;14.42;100.00;97727.94;5044544;28;20103;-77
2023/07/13 00:47:43;;;;;;;4.60;1.00;;;15.40;99.90;;;14.52;100.00;97735.25;5045016;28;20081;-78
2023/07/13 00:50:14;;;;;;;4.95;1.08;;;15.50;99.90;;;14.61;100.00;97726.91;5026384;28;20061;-78
2023/07/13 00:52:47;;;;;;;5.43;0.90;;;15.60;99.90;;;14.62;100.00;97733.84;5031038;28;20617;-78
2023/07/13 00:55:15;;;;;;;4.13;1.08;;;15.60;99.90;;;14.46;100.00;97740.81;5042326;28;20152;-78
2023/07/13 00:57:43;;;;;;;4.32;0.90;;;15.60;99.90;;;14.48;100.00;97737.16;5027192;28;20053;-78
2023/07/13 01:00:12;;;;;;;2.80;1.05;;;15.60;99.90;;;14.45;100.00;97742.56;5045160;28;20049;-77
2023/07/13 01:02:42;;;;;;;2.22;1.10;;;15.50;99.90;;;14.51;100.00;97741.41;5043459;28;20118;-78
2023/07/13 01:05:15;;;;;;;3.08;0.88;;;15.50;99.90;;;14.00;100.00;97738.94;5010690;28;20440;-77
2023/07/13 01:07:44;;;;;;;2.50;0.93;;;15.50;99.90;;;14.26;100.00;97749.75;5038930;28;20057;-77
2023/07/13 01:10:13;;;;;;;3.25;0.98;;;15.30;99.90;;;14.02;100.00;97755.34;5039413;28;20097;-77
2023/07/13 01:12:41;;;;;;;2.65;0.90;;;15.30;99.90;;;14.06;100.00;97759.50;5028381;28;20133;-78
2023/07/13 01:15:42;;;;;;;3.72;1.00;;;15.20;99.90;;;14.05;100.00;97754.34;5039838;28;20103;-77
2023/07/13 01:18:26;;;;;;;3.42;1.02;;;15.20;99.90;;;13.96;100.00;97758.31;5039532;28;20045;-77
2023/07/13 01:21:00;;;;;;;3.80;1.20;;;15.10;99.90;;;13.77;100.00;97756.66;5035779;28;20049;-77
2023/07/13 01:23:29;;;;;;;5.15;0.90;;;15.00;99.90;;;13.84;100.00;97759.78;5041387;28;20081;-77
2023/07/13 01:26:00;;;;;;;5.00;1.02;;;15.00;99.90;;;13.90;100.00;97771.69;5044121;28;20045;-77
2023/07/13 01:28:29;;;;;;;7.72;1.02;;;15.00;99.90;;;13.78;100.00;97770.56;5044752;28;20131;-77
2023/07/13 01:30:58;;;;;;;2.78;0.95;;;15.00;99.90;;;13.80;100.00;97766.94;5043547;28;20051;-78
2023/07/13 01:33:26;;;;;;;2.47;1.15;;;15.00;99.90;;;13.77;100.00;97759.25;5026644;28;20139;-78
2023/07/13 01:35:54;;;;;;;2.42;0.93;;;15.00;99.90;;;13.55;100.00;97764.78;5043351;28;20795;-78
2023/07/13 01:38:23;;;;;;;5.07;1.15;;;14.90;99.90;;;13.45;100.00;97771.38;5040313;28;20049;-77
2023/07/13 01:40:54;;;;;;;5.25;1.10;;;14.80;99.90;;;13.72;100.00;97768.28;5040058;28;20577;-78
2023/07/13 01:43:21;;;;;;;5.30;1.10;;;14.80;99.90;;;13.79;100.00;97772.25;5041815;28;20053;-77
2023/07/13 01:45:48;;;;;;;3.05;1.02;;;14.70;99.90;;;13.53;100.00;97766.63;5043395;28;20045;-77
2023/07/13 01:48:15;;;;;;;3.08;1.35;;;14.80;99.90;;;13.41;100.00;97761.19;5039133;28;21039;-77
2023/07/13 01:50:43;;;;;;;3.47;0.90;;;14.70;99.90;;;13.50;100.00;97768.53;5044739;28;20053;-77
2023/07/13 01:53:12;;;;;;;2.53;1.27;;;14.70;99.90;;;13.63;100.00;97771.38;5038923;28;20072;-77
2023/07/13 01:55:42;;;;;;;2.38;1.02;;;14.70;99.90;;;13.69;100.00;97779.72;5042879;28;20059;-78
2023/07/13 01:58:09;;;;;;;2.13;0.95;;;14.70;99.90;;;13.68;100.00;97774.56;5040820;28;20235;-77
2023/07/13 02:00:36;;;;;;;5.82;0.98;;;14.80;99.90;;;13.59;100.00;97774.13;5041663;28;20293;-77
2023/07/13 02:03:05;;;;;;;2.60;0.90;;;14.90;99.90;;;13.76;100.00;97770.63;5042025;28;20049;-77
2023/07/13 02:05:32;;;;;;;3.75;0.90;;;14.80;99.90;;;13.97;100.00;97768.66;5042493;28;20052;-78
2023/07/13 02:07:59;;;;;;;2.58;0.90;;;14.90;99.90;;;13.74;100.00;97766.44;5026753;28;20057;-77
2023/07/13 02:10:28;;;;;;;3.95;1.17;;;14.90;99.90;;;13.96;100.00;97769.59;5042614;28;20052;-78
2023/07/13 02:12:55;;;;;;;2.55;1.10;;;14.90;99.90;;;14.14;100.00;97767.78;5059392;28;20049;-77
2023/07/13 02:15:22;;;;;;;2.55;1.05;;;15.00;99.90;;;14.12;100.00;97771.41;5042560;28;20062;-77
2023/07/13 02:17:52;;;;;;;2.03;0.80;;;15.00;99.90;;;14.10;100.00;97768.84;5043793;28;20496;-78
2023/07/13 02:20:22;;;;;;;5.30;1.10;;;15.10;99.90;;;14.10;100.00;97768.03;5025320;28;20074;-78
2023/07/13 02:22:50;;;;;;;2.95;1.02;;;15.10;99.90;;;14.16;100.00;97771.16;5043845;28;20075;-77
2023/07/13 02:25:17;;;;;;;2.83;0.80;;;15.20;99.90;;;14.32;100.00;97767.69;5043562;28;20045;-77
2023/07/13 02:27:44;;;;;;;4.40;1.20;;;15.20;99.90;;;14.43;100.00;97765.31;5028357;28;20044;-77
2023/07/13 02:30:11;;;;;;;3.67;1.17;;;15.30;99.90;;;14.42;100.00;97758.44;5042331;28;20045;-77
2023/07/13 02:32:38;;;;;;;2.45;1.10;;;15.30;99.90;;;14.42;100.00;97759.25;5043638;28;20106;-78
2023/07/13 02:35:06;;;;;;;5.65;1.33;;;15.40;99.90;;;14.38;100.00;97764.75;5042384;28;20067;-78
2023/07/13 02:37:33;;;;;;;2.67;1.13;;;15.40;99.90;;;14.39;100.00;97763.78;5041206;28;20041;-78
2023/07/13 02:40:00;;;;;;;3.95;1.20;;;15.40;99.90;;;14.40;100.00;97768.94;5023286;28;20471;-77
2023/07/13 02:42:27;;;;;;;6.30;1.10;;;15.30;99.90;;;14.42;100.00;97771.50;5004808;28;20500;-78
2023/07/13 02:44:54;;;;;;;4.32;1.15;;;15.30;99.90;;;14.46;100.00;97765.16;5045437;28;20118;-77
2023/07/13 02:47:22;;;;;;;4.95;1.42;;;15.30;99.90;;;14.44;100.00;97754.81;5044003;28;20099;-77
2023/07/13 02:49:49;;;;;;;3.67;1.27;;;15.40;99.90;;;14.38;100.00;97762.13;5044139;28;20523;-77
2023/07/13 02:52:16;;;;;;;2.50;1.13;;;15.30;99.90;;;14.43;100.00;97771.38;5044066;28;20053;-77
2023/07/13 02:54:43;;;;;;;3.05;1.20;;;15.40;99.90;;;14.36;100.00;97763.97;5040232;28;20083;-78
2023/07/13 02:57:10;;;;;;;2.67;1.10;;;15.40;99.90;;;14.45;100.00;97760.84;5036163;28;20061;-77
2023/07/13 02:59:37;;;;;;;2.78;1.00;;;15.30;99.90;;;14.42;100.00;97761.88;5040883;28;20588;-77
2023/07/13 03:02:04;;;;;;;3.00;1.20;;;15.40;99.90;;;14.39;100.00;97762.06;5040418;28;20048;-77
2023/07/13 03:04:31;;;;;;;5.13;1.33;;;15.40;99.90;;;14.36;100.00;97769.19;5043531;28;20076;-77
2023/07/13 03:06:58;;;;;;;3.70;0.90;;;15.40;99.90;;;14.31;100.00;97766.84;5053093;28;20075;-77
2023/07/13 03:09:25;;;;;;;3.13;1.33;;;15.40;99.90;;;14.24;100.00;97765.50;5043622;28;20041;-77
2023/07/13 03:11:54;;;;;;;3.40;1.35;;;15.30;99.90;;;14.21;100.00;97766.50;5042241;28;20048;-77
2023/07/13 03:14:23;;;;;;;3.30;1.10;;;15.20;99.90;;;14.13;100.00;97765.22;5045258;28;20099;-78
2023/07/13 03:16:50;;;;;;;4.03;1.10;;;15.10;99.90;;;13.76;100.00;97765.41;5028256;28;20095;-78
2023/07/13 03:19:18;;;;;;;5.88;1.40;;;14.80;99.90;;;13.79;100.00;97777.47;5044297;28;20044;-78
2023/07/13 03:21:45;;;;;;;3.50;1.38;;;14.60;99.90;;;13.55;100.00;97777.81;5045821;28;20208;-78
2023/07/13 03:24:13;;;;;;;4.35;1.27;;;14.40;99.90;;;13.47;100.00;97786.94;5041693;28;20045;-77
2023/07/13 03:26:40;;;;;;;4.97;1.30;;;14.20;99.90;;;13.40;100.00;97786.41;5059820;28;20078;-77
2023/07/13 03:29:07;;;;;;;7.10;1.50;;;14.20;99.90;;;13.28;100.00;97790.50;5045760;28;20142;-77
2023/07/13 03:31:36;;;;;;;4.47;1.30;;;14.30;99.90;;;13.52;100.00;97793.59;5042628;28;20130;-77
2023/07/13 03:34:04;;;;;;;4.43;1.25;;;14.40;99.90;;;13.42;100.00;97807.22;5044437;28;20107;-77
2023/07/13 03:36:32;;;;;;;4.43;1.30;;;14.40;99.90;;;13.39;100.00;97813.41;5045577;28;20779;-77
2023/07/13 03:39:02;;;;;;;3.28;1.67;;;14.30;99.90;;;13.34;100.00;97815.41;5030808;28;20045;-77
2023/07/13 03:41:31;;;;;;;5.05;1.50;;;14.40;99.90;;;13.21;100.00;97817.75;5025231;28;20045;-77
2023/07/13 03:43:58;;;;;;;4.78;1.63;;;14.20;99.90;;;13.20;100.00;97836.91;5048731;28;20796;-77
2023/07/13 03:46:25;;;;;;;3.90;1.52;;;14.00;99.90;;;13.16;100.00;97828.41;5045984;28;20041;-78
2023/07/13 03:48:53;;;;;;;6.20;1.42;;;13.90;99.90;;;13.16;100.00;97830.19;5045609;28;20533;-77
2023/07/13 03:51:20;;;;;;;6.35;1.80;;;13.90;99.90;;;13.02;100.00;97835.19;5046058;28;20080;-77
2023/07/13 03:53:48;;;;;;;6.05;1.20;;;13.80;99.90;;;13.08;100.00;97834.91;5042178;28;20045;-77
2023/07/13 03:56:18;;;;;;;3.90;1.40;;;13.90;99.90;;;13.34;100.00;97833.63;5056565;28;20812;-77
2023/07/13 03:58:48;;;;;;;6.50;1.38;;;14.00;99.90;;;13.35;100.00;97837.97;5048066;28;20072;-77
2023/07/13 04:01:20;;;;;;;5.75;1.65;;;14.20;99.90;;;13.07;100.00;97836.69;5042211;28;20037;-77
2023/07/13 04:03:48;;;;;;;5.22;2.25;;;14.10;99.90;;;13.06;100.00;97842.78;5045266;28;20118;-77
2023/07/13 04:06:27;;;;;;;5.72;3.00;;;14.00;99.90;;;13.06;100.00;97847.16;5059827;28;20041;-77
2023/07/13 04:08:59;;;;;;;8.63;3.63;;;13.80;99.90;;;12.95;100.00;97851.16;5044885;28;20052;-77
2023/07/13 04:11:31;;;;;;;9.98;2.35;;;13.90;99.90;;;13.04;100.00;97849.84;5044086;28;20424;-78
2023/07/13 04:13:59;;;;;;;;;;;13.90;99.90;;;13.28;100.00;97844.41;5045484;28;20088;-77
2023/07/13 04:16:26;;;;;;;7.50;1.60;;;14.00;99.90;;;13.44;100.00;97834.88;5029939;28;19966;-77
2023/07/13 04:18:59;;;;;;;3.53;1.38;;;14.20;99.90;;;13.52;100.00;97842.31;5037529;28;20056;-77
2023/07/13 04:21:29;;;;;;;6.55;1.10;;;14.30;99.90;;;13.71;100.00;97839.63;5046260;28;20087;-78
2023/07/13 04:23:59;;;;;;;4.20;1.15;;;14.40;99.90;;;13.69;100.00;97831.88;5027158;28;20053;-78
2023/07/13 04:26:27;;;;;;;6.80;1.38;;;14.60;99.90;;;13.71;100.00;97826.59;5043263;28;20044;-77
2023/07/13 04:28:58;;;;;;;4.97;1.30;;;14.70;99.90;;;13.65;100.00;97824.28;5048613;28;20049;-78
2023/07/13 04:31:25;;;;;;;2.45;1.30;;;14.60;99.90;;;13.68;100.00;97824.13;5050067;28;20056;-78
2023/07/13 04:33:53;;;;;;;5.05;1.40;;;14.60;99.90;;;13.79;100.00;97833.09;5063062;28;20053;-78
2023/07/13 04:36:20;;;;;;;3.30;1.23;;;14.60;99.90;;;13.92;100.00;97830.69;5035041;28;20049;-78
2023/07/13 04:38:47;;;;;;;5.20;1.40;;;14.70;99.90;;;14.08;100.00;97819.47;5031882;28;20048;-78
2023/07/13 04:41:15;;;;;;;6.40;1.88;;;14.80;99.90;;;14.07;100.00;97823.84;5043353;28;20573;-78
2023/07/13 04:43:44;;;;;;;4.72;1.35;;;14.90;99.90;;;14.15;100.00;97829.47;5030108;28;20053;-78
2023/07/13 04:46:15;;;;;;;3.45;1.40;;;14.90;99.90;;;14.20;100.00;97826.63;5042949;28;20072;-78
2023/07/13 04:48:46;;;;;;;2.35;1.25;;;15.00;99.90;;;14.40;100.00;97823.78;5044431;28;20057;-78
2023/07/13 04:51:16;;;;;;;3.65;1.17;;;15.10;99.90;;;14.64;100.00;97831.22;5027965;28;20049;-78
2023/07/13 04:53:43;;;;;;;3.45;1.30;;;15.20;99.90;;;14.75;100.00;97828.03;5042436;28;20056;-78
2023/07/13 04:56:10;;;;;;;3.55;1.65;;;15.20;99.90;;;14.52;100.00;97824.88;5026471;28;20076;-78
2023/07/13 04:58:38;;;;;;;3.92;1.40;;;15.20;99.90;;;14.66;100.00;97821.53;5043810;28;20134;-78
2023/07/13 05:01:06;;;;;;;5.72;1.40;;;15.20;99.90;;;14.83;100.00;97825.84;5030582;28;20037;-78
2023/07/13 05:03:34;;;;;;;3.70;1.40;;;15.30;99.90;;;14.99;100.00;97829.28;5045812;28;20045;-77
2023/07/13 05:06:05;;;;;;;3.67;1.10;;;15.40;99.90;;;15.28;100.00;97821.56;5042660;28;20057;-77
2023/07/13 05:08:33;;;;;;;3.30;1.45;;;15.70;99.90;;;15.23;100.00;97816.56;5039747;28;20053;-78
2023/07/13 05:11:03;;;;;;;13.52;1.90;;;15.80;99.90;;;15.36;100.00;97803.63;5060812;28;20053;-78
2023/07/13 05:13:31;;;;;;;2.75;1.05;;;15.90;99.90;;;15.54;100.00;97819.19;5046436;28;20056;-78
2023/07/13 05:16:05;;;;;;;3.17;1.30;;;16.00;99.90;;;15.46;100.00;97823.13;5047044;28;20045;-78
2023/07/13 05:18:33;;;;;;;4.30;1.35;;;16.00;99.90;;;15.57;100.00;97827.69;5040204;28;20433;-78
2023/07/13 05:21:03;;;;;;;5.13;1.30;;;16.10;99.90;;;15.69;100.00;97828.72;5028977;28;20121;-77
2023/07/13 05:23:32;;;;;;;5.72;1.52;;;16.20;99.90;;;15.76;100.00;97834.47;5044180;28;20049;-78
2023/07/13 05:26:00;;;;;;;5.32;1.40;;;16.30;99.90;;;16.08;100.00;97829.97;5044222;28;20053;-78
2023/07/13 05:28:29;;;;;;;5.85;1.50;;;16.50;99.90;;;16.26;100.00;97828.81;5039371;28;20045;-78
2023/07/13 05:30:57;;;;;;;3.53;1.20;;;;;;;16.41;100.00;97823.56;5046323;28;20421;-78
2023/07/13 05:33:26;;;;;;;4.25;1.30;;;16.80;99.90;;;16.60;100.00;97829.31;5040564;28;20140;-78
2023/07/13 05:35:53;;;;;;;2.85;0.93;;;17.00;99.90;;;16.81;100.00;97823.69;5028010;28;20075;-78
2023/07/13 05:38:21;;;;;;;3.97;1.00;;;17.10;99.90;;;16.82;100.00;97813.09;5040099;28;20037;-78
2023/07/13 05:41:05;;;;;;;2.33;1.00;;;17.30;99.90;;;17.23;100.00;97806.97;5031388;28;20099;-78
2023/07/13 05:43:33;;;;;;;3.22;1.10;;;17.50;99.90;;;17.36;100.00;97804.38;5027890;28;20425;-78
2023/07/13 05:46:00;;;;;;;4.10;1.40;;;17.60;99.90;;;17.50;100.00;97799.03;5045513;28;20076;-78
2023/07/13 05:48:28;;;;;;;4.40;0.95;;;17.70;99.90;;;17.06;100.00;97800.22;5043190;28;20389;-78
2023/07/13 05:50:56;;;;;;;4.05;1.33;;;17.70;99.90;;;17.23;100.00;97783.34;5023904;28;20578;-78
2023/07/13 05:53:23;;;;;;;3.53;0.90;;;17.70;99.90;;;17.60;100.00;97786.13;5043493;28;20715;-78
2023/07/13 05:55:50;;;;;;;4.63;1.00;;;17.90;99.90;;;17.92;100.00;97786.56;5036680;28;20052;-78
2023/07/13 05:58:19;;;;;;;5.05;1.15;;;18.10;99.90;;;17.60;100.00;97787.91;5039814;28;20102;-78
2023/07/13 06:00:47;;;;;;;4.90;0.90;;;18.10;99.90;;;17.69;100.00;97782.03;5041429;28;20052;-78
2023/07/13 06:03:15;;;;;;;4.65;0.90;;;18.00;99.90;;;17.74;100.00;97788.66;5044482;28;20493;-78
2023/07/13 06:05:42;;;;;;;3.70;0.80;;;18.00;99.90;;;17.91;100.00;97779.66;5023940;28;20095;-77
2023/07/13 06:08:09;;;;;;;4.45;1.00;;;18.10;99.90;;;17.77;100.00;97783.19;5042275;28;20049;-78
2023/07/13 06:10:37;;;;;;;6.07;1.30;;;18.30;99.90;;;17.75;100.00;97787.72;5024561;28;20053;-78
2023/07/13 06:13:04;;;;;;;5.55;0.90;;;18.10;99.90;;;17.75;100.00;97792.97;5043421;28;20049;-78
2023/07/13 06:15:31;;;;;;;6.00;1.20;;;18.10;99.90;;;17.59;100.00;97799.38;5043705;28;20538;-79
2023/07/13 06:17:58;;;;;;;5.43;1.30;;;18.10;99.90;;;17.90;100.00;97798.13;5057174;28;20048;-79
2023/07/13 06:20:26;;;;;;;4.60;1.00;;;18.00;99.90;;;17.92;100.00;97804.94;5039645;28;20044;-79
2023/07/13 06:22:53;;;;;;;3.28;1.27;;;18.20;99.90;;;18.05;100.00;97806.75;5040469;28;20111;-79
2023/07/13 06:25:20;;;;;;;4.55;0.80;;;18.30;99.90;;;18.16;100.00;97807.69;5040496;28;20394;-79
2023/07/13 06:27:47;;;;;;;7.22;1.10;;;18.40;99.90;;;18.00;100.00;97803.59;5028946;28;20408;-79
2023/07/13 06:30:14;;;;;;;4.03;0.82;;;18.50;99.90;;;18.50;100.00;97807.94;5043690;28;20049;-78
2023/07/13 06:32:42;;;;;;;3.70;0.70;;;18.60;99.90;;;18.29;100.00;97799.78;5040143;28;20472;-79
2023/07/13 06:35:12;;;;;;;5.00;0.70;;;18.50;99.90;;;18.68;100.00;97805.78;5024881;28;20045;-79
2023/07/13 06:37:39;;;;;;;4.38;0.77;;;18.80;99.90;;;18.65;100.00;97805.16;5026392;28;20103;-79
2023/07/13 06:40:08;;;;;;;6.38;0.90;;;19.10;99.90;;;18.21;100.00;97823.13;5058827;28;20049;-79
2023/07/13 06:42:35;;;;;;;3.25;0.70;;;19.10;99.90;;;18.56;100.00;97823.25;5026691;28;20098;-79
2023/07/13 06:45:05;;;;;;;5.05;1.00;;;19.10;99.90;;;18.44;100.00;97821.50;5026594;28;20045;-80
2023/07/13 06:47:32;;;;;;;4.30;0.95;;;19.10;99.90;;;18.43;100.00;97832.13;5040085;28;20044;-79
2023/07/13 06:50:01;;;;;;;7.15;1.10;;;19.00;99.90;;;18.49;100.00;97829.91;5040716;28;20063;-79
2023/07/13 06:52:28;;;;;;;4.68;0.90;;;18.90;99.90;;;18.98;100.00;97834.31;5021640;28;20045;-79
2023/07/13 06:54:56;;;;;;;4.35;0.70;;;19.20;99.90;;;19.02;100.00;97827.00;5055950;28;20049;-79
2023/07/13 06:57:23;;;;;;;3.25;0.80;;;19.40;99.90;;;19.47;100.00;97835.09;5034021;28;20052;-79
2023/07/13 06:59:50;;;;;;;4.38;0.90;;;19.60;99.90;;;19.58;100.00;97824.59;5039014;28;20118;-79
2023/07/13 07:02:18;;;;;;;5.32;0.80;;;19.90;99.90;;;19.58;100.00;97823.78;5024111;28;20065;-78
2023/07/13 07:04:45;;;;;;;4.40;1.02;;;20.00;99.90;;;19.65;100.00;97823.19;5041168;28;20144;-79
2023/07/13 07:07:12;;;;;;;6.90;0.93;;;20.20;99.90;;;19.42;100.00;97831.97;5041454;28;20044;-79
2023/07/13 07:09:39;;;;;;;3.03;0.70;;;20.10;99.90;;;19.48;100.00;97833.31;5049172;28;20144;-79
2023/07/13 07:12:07;;;;;;;5.38;0.70;;;19.90;99.90;;;19.71;100.00;97842.16;5047652;28;20569;-78
2023/07/13 07:14:34;;;;;;;9.60;0.80;;;20.10;99.90;;;19.40;100.00;97836.53;5031228;28;20129;-79
2023/07/13 07:17:01;;;;;;;5.30;0.88;;;20.20;99.90;;;19.61;100.00;97837.56;5043633;28;20048;-80
2023/07/13 07:19:30;;;;;;;2.75;0.50;;;20.00;99.90;;;19.80;100.00;97844.94;5062554;28;20792;-80
2023/07/13 07:21:57;;;;;;;3.55;0.77;;;20.20;99.90;;;20.39;100.00;97849.19;5046870;28;20049;-79
2023/07/13 07:24:25;;;;;;;10.40;0.90;;;20.40;99.90;;;19.99;100.00;97843.53;5051081;28;20081;-79
2023/07/13 07:26:52;;;;;;;4.05;0.77;;;20.40;99.90;;;19.54;100.00;97846.84;5046338;28;20048;-80
2023/07/13 07:29:25;;;;;;;5.03;0.70;;;20.20;99.90;;;19.74;100.00;97849.81;5048037;28;20044;-79
2023/07/13 07:31:55;;;;;;;3.83;0.95;;;20.30;99.90;;;19.61;100.00;97841.97;5040929;28;20057;-78
2023/07/13 07:34:25;;;;;;;4.63;0.73;;;20.30;99.90;;;19.41;100.00;97841.69;5064798;28;20123;-78
2023/07/13 07:36:53;;;;;;;3.95;0.82;;;19.90;99.90;;;19.69;100.00;97851.97;5030871;28;20498;-78
2023/07/13 07:39:23;;;;;;;5.15;0.65;;;20.00;99.90;;;19.68;100.00;97850.25;5040701;28;20044;-79
2023/07/13 07:41:53;;;;;;;5.60;0.60;;;19.90;99.90;;;19.50;100.00;97850.69;5049199;28;20041;-79
2023/07/13 07:44:23;;;;;;;4.32;0.70;;;19.80;99.90;;;19.92;100.00;97847.59;5049352;28;20812;-78
2023/07/13 07:46:50;;;;;;;3.33;0.73;;;19.80;99.90;;;20.37;100.00;97848.47;5049031;28;20040;-78
2023/07/13 07:49:17;;;;;;;6.20;0.98;;;20.30;99.90;;;20.47;100.00;97838.84;5044073;28;20053;-79
2023/07/13 07:51:45;;;;;;;3.17;0.80;;;20.30;99.90;;;20.89;100.00;97843.50;5048757;28;20135;-78
2023/07/13 07:54:12;;;;;;;3.97;1.00;;;20.60;99.90;;;20.57;100.00;97843.44;5045168;28;20044;-78
2023/07/13 07:56:48;;;;;;;5.10;0.88;;;20.90;99.90;;;20.83;100.00;97847.50;5050077;28;20044;-78
2023/07/13 07:59:37;;;;;;;4.05;0.90;;;21.10;99.90;;;20.53;100.00;97857.81;5035328;28;20416;-79
2023/07/13 08:02:09;;;;;;;;;;;21.00;99.90;;;20.11;100.00;97861.00;5045765;28;20053;-78
2023/07/13 08:04:56;;;;;;;3.35;0.98;;;20.40;99.90;;;20.12;100.00;97852.16;5041281;28;19986;-79
2023/07/13 08:07:27;;;;;;;3.85;0.80;;;20.10;99.90;;;20.31;100.00;97862.13;5045467;28;20154;-79
2023/07/13 08:09:54;;;;;;;4.15;0.80;;;20.30;99.90;;;20.51;100.00;97850.03;5040771;28;20040;-79
2023/07/13 08:12:22;;;;;;;6.60;1.00;;;20.60;99.90;;;20.94;100.00;97848.41;5043734;28;20433;-79
2023/07/13 08:14:53;;;;;;;5.70;0.90;;;20.90;99.90;;;21.17;100.00;97839.47;5033827;28;20085;-78
2023/07/13 08:17:21;;;;;;;6.72;0.95;;;21.20;99.90;;;21.49;100.00;97842.13;5019784;28;20629;-78
2023/07/13 08:19:48;;;;;;;3.25;0.65;;;21.50;99.90;;;21.49;100.00;97847.41;5037980;28;20049;-78
2023/07/13 08:22:15;;;;;;;4.82;0.85;;;21.80;99.90;;;21.00;100.00;97842.66;5033878;28;20044;-79
2023/07/13 08:24:43;;;;;;;5.72;0.85;;;21.50;99.90;;;21.17;100.00;97843.94;5034488;28;20056;-80
2023/07/13 08:27:11;;;;;;;4.43;0.80;;;21.60;99.90;;;20.76;100.00;97842.84;5035277;28;20584;-79
2023/07/13 08:29:39;;;;;;;7.20;1.10;;;21.50;99.90;;;20.67;100.00;97847.03;5037641;28;20060;-80
2023/07/13 08:32:09;;;;;;;4.07;0.90;;;21.30;99.90;;;21.26;100.00;97846.66;5040892;28;20053;-81
2023/07/13 08:34:37;;;;;;;5.30;1.08;;;21.40;99.90;;;20.57;100.00;97843.44;5037831;28;20053;-79
2023/07/13 08:37:05;;;;;;;7.35;1.40;;;21.40;99.90;;;21.05;100.00;97848.38;5052708;28;20478;-78
2023/07/13 08:39:33;;;;;;;4.85;1.00;;;21.20;99.90;;;21.21;100.00;97846.19;5020240;28;20052;-80
2023/07/13 08:42:12;;;;;;;10.02;0.95;;;21.30;99.90;;;21.25;100.00;97841.47;5035609;28;20049;-79
2023/07/13 08:45:21;;;;;;;5.40;1.08;;;21.50;99.90;;;20.96;100.00;97843.84;5040055;28;20045;-80
2023/07/13 08:48:02;;;;;;;7.95;0.93;;;21.40;99.90;;;20.61;100.00;97845.72;5035644;28;20048;-79
2023/07/13 08:50:35;;;;;;;6.25;1.55;;;21.10;99.90;;;20.51;100.00;97851.81;5022560;28;21125;-79
2023/07/13 08:53:21;;;;;;;3.05;1.17;;;21.10;99.90;;;21.41;100.00;97839.28;5023551;28;20408;-79
2023/07/13 08:55:57;;;;;;;14.75;1.40;;;21.40;99.90;;;22.02;100.00;97829.81;5039403;28;20072;-82
2023/07/13 08:58:28;;;;;;;4.32;0.90;;;21.80;99.90;;;22.26;100.00;97835.69;5032238;28;20411;-80
2023/07/13 09:01:02;;;;;;;4.78;0.88;;;22.30;99.90;;;22.44;100.00;97827.97;5034647;28;20520;-79
2023/07/13 09:03:40;;;;;;;5.65;1.00;;;22.50;99.90;;;22.01;100.00;97826.34;5027862;28;20041;-80
2023/07/13 09:06:12;;;;;;;4.97;1.00;;;22.40;99.90;;;22.38;100.00;97820.56;5029492;28;20128;-79
2023/07/13 09:08:55;;;;;;;6.03;1.00;;;22.20;99.90;;;23.08;100.00;97823.25;5036022;28;20145;-81
2023/07/13 09:11:52;;;;;;;9.73;0.93;;;22.70;99.90;;;22.41;100.00;97825.56;5033166;28;20484;-79
2023/07/13 09:14:53;;;;;;;3.92;0.80;;;23.00;99.90;;;22.52;100.00;97822.81;5029541;28;20109;-79
2023/07/13 09:17:46;;;;;;;7.38;0.85;;;23.90;99.50;;;23.47;100.00;97840.00;5031904;28;20075;-79
2023/07/13 09:20:30;;;;;;;4.00;0.65;;;23.40;98.10;;;23.03;100.00;97818.38;5018315;28;20088;-79
2023/07/13 09:23:01;;;;;;;5.28;0.90;;;23.50;98.00;;;22.50;100.00;97816.00;5029961;28;20351;-80
2023/07/13 09:25:37;;;;;;;8.98;0.82;;;23.30;98.10;;;22.62;100.00;97830.78;5034316;28;20056;-79
2023/07/13 09:28:25;;;;;;;4.97;0.80;;;23.30;96.70;;;22.05;100.00;97834.84;5030932;28;20128;-76
2023/07/13 09:31:13;;;;;;;3.17;0.70;;;23.50;96.70;;;22.92;100.00;97839.63;5026624;28;20174;-79
2023/07/13 09:33:43;;;;;;;2.55;0.73;;;23.40;96.70;;;22.89;100.00;97835.44;5033684;28;20622;-78
2023/07/13 09:36:23;;;;;;;3.75;0.98;;;23.10;96.80;;;22.73;100.00;97832.50;5003386;28;20072;-77
2023/07/13 09:39:16;;;;;;;2.80;0.73;;;22.80;97.60;;;22.51;100.00;97830.88;5019118;28;20056;-76
2023/07/13 09:42:01;;;;;;;4.30;0.68;;;22.80;98.30;;;22.77;100.00;97833.91;5021533;28;20085;-78
2023/07/13 09:44:37;;;;;;;5.00;0.90;;;22.70;98.30;;;23.50;100.00;97831.75;5037112;28;20484;-76
2023/07/13 09:47:29;;;;;;;4.07;0.60;;;22.90;98.20;;;23.51;100.00;97830.78;5012085;28;20049;-78
2023/07/13 09:50:03;;;;;;;3.00;0.73;;;23.00;97.00;;;23.33;100.00;97828.03;5025785;28;20053;-77
2023/07/13 09:52:49;;;;;;;4.97;0.70;;;23.10;95.50;;;23.47;100.00;97829.41;4993917;28;20122;-76
2023/07/13 09:55:34;;;;;;;4.18;0.60;;;23.30;96.00;;;23.13;100.00;97842.22;5048106;28;20045;-77
2023/07/13 09:58:25;;;;;;;3.60;0.63;;;23.10;95.80;;;22.79;100.00;97839.06;5004409;28;20275;-77
2023/07/13 10:01:06;;;;;;;3.20;0.90;;;23.00;94.90;;;23.12;100.00;97845.81;5024415;28;20891;-76
2023/07/13 10:03:53;;;;;;;2.70;0.70;;;23.40;95.50;;;23.62;100.00;97845.69;5019488;28;20076;-76
2023/07/13 10:06:22;;;;;;;5.38;1.00;;;23.90;94.60;;;24.26;100.00;97835.41;5021094;28;20048;-77
2023/07/13 10:08:53;;;;;;;3.63;0.85;;;24.30;94.20;;;23.24;100.00;97839.44;5021969;28;20049;-76
2023/07/13 10:11:26;;;;;;;4.63;1.00;;;23.70;94.00;;;23.37;100.00;97849.75;5026378;28;20041;-76
2023/07/13 10:14:03;;;;;;;4.63;0.70;;;23.50;95.30;;;24.46;100.00;97839.66;5032513;28;20501;-76
2023/07/13 10:16:34;;;;;;;3.28;0.85;;;23.80;94.40;;;24.41;100.00;97844.56;5014992;28;20132;-76
2023/07/13 10:19:25;;;;;;;4.10;0.97;;;24.50;95.10;;;25.34;100.00;97842.69;5013896;28;20036;-76
2023/07/13 10:22:14;;;;;;;5.00;0.88;;;24.60;92.90;;;25.77;100.00;97825.09;5030366;28;20049;-76
2023/07/13 10:24:42;;;;;;;3.92;0.70;;;25.50;92.80;;;25.56;100.00;97829.91;5015219;28;20049;-77
2023/07/13 10:27:25;;;;;;;5.72;0.80;;;25.30;92.60;;;24.66;100.00;97831.63;5025832;28;20076;-78
2023/07/13 10:30:20;;;;;;;3.08;0.70;;;25.10;91.90;;;24.89;100.00;97824.09;5002220;28;20886;-77